BEL1850 EGKK-EBBR
Flight info
| Callsign | BEL1850 |
|---|---|
| Flight time | 0h 39m |
| Altitude | 23000 |
| Route | DVR L18 VABIK Q70 KOK |
| Aircraft | A320/M-SDE3FGHIRWY/LB1 |
Departure
| Time | 2026-05-07 20:37 |
|---|---|
| Airport | London Gatwick Airport (EGKK) |
Arrival
| Time | 2026-05-07 21:17 |
|---|---|
| Airport | Brussels Airport (EBBR) |
| Time | Latitude | Longitude | Altitude | Speed | Heading |
|---|---|---|---|---|---|
| 2026-05-07 20:11 | 51.15458 | -0.17157 | 211 ft | 0 kts | 36° |
| 2026-05-07 20:26 | 51.15455 | -0.17160 | 211 ft | 2 kts | 38° |
| 2026-05-07 20:26 | 51.15445 | -0.17174 | 219 ft | 0 kts | 142° |
| 2026-05-07 20:26 | 51.15444 | -0.17174 | 218 ft | 0 kts | 142° |
| 2026-05-07 20:27 | 51.15442 | -0.17171 | 217 ft | 0 kts | 142° |
| 2026-05-07 20:28 | 51.15452 | -0.17179 | 219 ft | 0 kts | 118° |
| 2026-05-07 20:28 | 51.15455 | -0.17191 | 217 ft | 5 kts | 123° |
| 2026-05-07 20:28 | 51.15493 | -0.17258 | 216 ft | 7 kts | 148° |
| 2026-05-07 20:29 | 51.15494 | -0.17261 | 216 ft | 0 kts | 155° |
| 2026-05-07 20:30 | 51.15491 | -0.17262 | 217 ft | 1 kts | 165° |
| 2026-05-07 20:30 | 51.15476 | -0.17269 | 217 ft | 4 kts | 186° |
| 2026-05-07 20:30 | 51.15460 | -0.17268 | 219 ft | 0 kts | 178° |
| 2026-05-07 20:30 | 51.15456 | -0.17268 | 219 ft | 4 kts | 178° |
| 2026-05-07 20:31 | 51.15428 | -0.17263 | 218 ft | 11 kts | 173° |
| 2026-05-07 20:31 | 51.15366 | -0.17310 | 216 ft | 12 kts | 227° |
| 2026-05-07 20:31 | 51.15303 | -0.17422 | 220 ft | 15 kts | 248° |
| 2026-05-07 20:31 | 51.15275 | -0.17602 | 215 ft | 19 kts | 258° |
| 2026-05-07 20:32 | 51.15245 | -0.17823 | 219 ft | 22 kts | 258° |
| 2026-05-07 20:32 | 51.15209 | -0.18080 | 210 ft | 25 kts | 257° |
| 2026-05-07 20:32 | 51.15172 | -0.18361 | 220 ft | 27 kts | 259° |
| 2026-05-07 20:32 | 51.15133 | -0.18670 | 210 ft | 30 kts | 258° |
| 2026-05-07 20:33 | 51.15087 | -0.19003 | 218 ft | 32 kts | 257° |
| 2026-05-07 20:33 | 51.15040 | -0.19354 | 218 ft | 33 kts | 258° |
| 2026-05-07 20:33 | 51.14987 | -0.19720 | 213 ft | 35 kts | 257° |
| 2026-05-07 20:33 | 51.14949 | -0.20016 | 215 ft | 11 kts | 258° |
| 2026-05-07 20:34 | 51.14931 | -0.20158 | 215 ft | 16 kts | 258° |
| 2026-05-07 20:34 | 51.14902 | -0.20360 | 217 ft | 21 kts | 257° |
| 2026-05-07 20:34 | 51.14868 | -0.20601 | 213 ft | 24 kts | 257° |
| 2026-05-07 20:34 | 51.14830 | -0.20875 | 214 ft | 26 kts | 257° |
| 2026-05-07 20:35 | 51.14786 | -0.21155 | 217 ft | 26 kts | 252° |
| 2026-05-07 20:35 | 51.14754 | -0.21348 | 218 ft | 13 kts | 249° |
| 2026-05-07 20:35 | 51.14733 | -0.21375 | 218 ft | 0 kts | 208° |
| 2026-05-07 20:35 | 51.14732 | -0.21375 | 218 ft | 1 kts | 206° |
| 2026-05-07 20:36 | 51.14690 | -0.21373 | 215 ft | 10 kts | 167° |
| 2026-05-07 20:36 | 51.14610 | -0.21320 | 212 ft | 14 kts | 163° |
| 2026-05-07 20:36 | 51.14524 | -0.21219 | 217 ft | 18 kts | 118° |
| 2026-05-07 20:36 | 51.14521 | -0.21122 | 214 ft | 0 kts | 78° |
| 2026-05-07 20:37 | 51.14548 | -0.20911 | 217 ft | 69 kts | 78° |
| 2026-05-07 20:37 | 51.14734 | -0.19558 | 262 ft | 171 kts | 78° |
| 2026-05-07 20:37 | 51.15029 | -0.17590 | 1053 ft | 188 kts | 77° |
| 2026-05-07 20:38 | 51.15296 | -0.15550 | 2082 ft | 189 kts | 80° |
| 2026-05-07 20:38 | 51.15554 | -0.13406 | 2788 ft | 206 kts | 79° |
| 2026-05-07 20:38 | 51.15876 | -0.11071 | 3280 ft | 225 kts | 77° |
| 2026-05-07 20:38 | 51.16239 | -0.08542 | 3568 ft | 245 kts | 77° |
| 2026-05-07 20:39 | 51.16630 | -0.05771 | 4197 ft | 261 kts | 78° |
| 2026-05-07 20:39 | 51.16904 | -0.02919 | 5158 ft | 263 kts | 86° |
| 2026-05-07 20:39 | 51.16885 | 0.00008 | 5654 ft | 266 kts | 92° |
| 2026-05-07 20:39 | 51.16810 | 0.02975 | 5886 ft | 268 kts | 92° |
| 2026-05-07 20:40 | 51.16735 | 0.05950 | 5989 ft | 269 kts | 92° |
| 2026-05-07 20:40 | 51.16668 | 0.08927 | 6010 ft | 271 kts | 92° |
| 2026-05-07 20:40 | 51.16609 | 0.11879 | 6076 ft | 269 kts | 92° |
| 2026-05-07 20:40 | 51.16553 | 0.14865 | 6250 ft | 270 kts | 92° |
| 2026-05-07 20:41 | 51.16514 | 0.17869 | 6560 ft | 272 kts | 91° |
| 2026-05-07 20:41 | 51.16522 | 0.20900 | 6876 ft | 275 kts | 90° |
| 2026-05-07 20:41 | 51.16545 | 0.23967 | 7180 ft | 278 kts | 90° |
| 2026-05-07 20:41 | 51.16566 | 0.27056 | 7484 ft | 280 kts | 90° |
| 2026-05-07 20:42 | 51.16580 | 0.30168 | 7819 ft | 282 kts | 90° |
| 2026-05-07 20:42 | 51.16589 | 0.33305 | 8156 ft | 284 kts | 90° |
| 2026-05-07 20:42 | 51.16591 | 0.36461 | 8496 ft | 286 kts | 90° |
| 2026-05-07 20:42 | 51.16590 | 0.39640 | 8839 ft | 288 kts | 90° |
| 2026-05-07 20:43 | 51.16588 | 0.42842 | 9187 ft | 290 kts | 91° |
| 2026-05-07 20:43 | 51.16585 | 0.46072 | 9540 ft | 293 kts | 91° |
| 2026-05-07 20:43 | 51.16583 | 0.49329 | 9871 ft | 295 kts | 91° |
| 2026-05-07 20:43 | 51.16580 | 0.52686 | 10246 ft | 315 kts | 91° |
| 2026-05-07 20:44 | 51.16578 | 0.56301 | 10644 ft | 337 kts | 91° |
| 2026-05-07 20:44 | 51.16576 | 0.60097 | 11388 ft | 345 kts | 91° |
| 2026-05-07 20:44 | 51.16574 | 0.63942 | 12273 ft | 350 kts | 91° |
| 2026-05-07 20:44 | 51.16571 | 0.67839 | 13171 ft | 354 kts | 91° |
| 2026-05-07 20:45 | 51.16565 | 0.71784 | 14004 ft | 359 kts | 91° |
| 2026-05-07 20:45 | 51.16557 | 0.75784 | 14770 ft | 363 kts | 91° |
| 2026-05-07 20:45 | 51.16547 | 0.79837 | 15634 ft | 368 kts | 91° |
| 2026-05-07 20:45 | 51.16535 | 0.83943 | 16369 ft | 373 kts | 91° |
| 2026-05-07 20:46 | 51.16522 | 0.88103 | 17098 ft | 378 kts | 91° |
| 2026-05-07 20:46 | 51.16507 | 0.92318 | 17826 ft | 383 kts | 91° |
| 2026-05-07 20:46 | 51.16491 | 0.96585 | 18529 ft | 388 kts | 91° |
| 2026-05-07 20:46 | 51.16473 | 1.00903 | 19195 ft | 392 kts | 91° |
| 2026-05-07 20:47 | 51.16453 | 1.05258 | 19866 ft | 396 kts | 91° |
| 2026-05-07 20:47 | 51.16431 | 1.09662 | 20532 ft | 400 kts | 91° |
| 2026-05-07 20:47 | 51.16408 | 1.14112 | 21209 ft | 404 kts | 91° |
| 2026-05-07 20:47 | 51.16382 | 1.18611 | 21884 ft | 408 kts | 91° |
| 2026-05-07 20:48 | 51.16354 | 1.23151 | 22550 ft | 412 kts | 91° |
| 2026-05-07 20:48 | 51.16324 | 1.27748 | 22943 ft | 416 kts | 91° |
| 2026-05-07 20:48 | 51.16293 | 1.32361 | 23074 ft | 420 kts | 91° |
| 2026-05-07 20:48 | 51.16458 | 1.37094 | 23081 ft | 431 kts | 83° |
| 2026-05-07 20:49 | 51.17013 | 1.41778 | 23081 ft | 431 kts | 78° |
| 2026-05-07 20:49 | 51.17649 | 1.46380 | 23084 ft | 431 kts | 78° |
| 2026-05-07 20:49 | 51.18290 | 1.51113 | 23084 ft | 431 kts | 78° |
| 2026-05-07 20:49 | 51.18913 | 1.55783 | 23084 ft | 431 kts | 78° |
| 2026-05-07 20:50 | 51.19522 | 1.60399 | 23085 ft | 431 kts | 78° |
| 2026-05-07 20:50 | 51.20143 | 1.65135 | 23090 ft | 431 kts | 78° |
| 2026-05-07 20:50 | 51.20754 | 1.69814 | 23085 ft | 431 kts | 78° |
| 2026-05-07 20:50 | 51.21356 | 1.74435 | 23086 ft | 431 kts | 78° |
| 2026-05-07 20:51 | 51.21964 | 1.79114 | 23089 ft | 431 kts | 78° |
| 2026-05-07 20:51 | 51.22570 | 1.83798 | 23087 ft | 431 kts | 78° |
| 2026-05-07 20:51 | 51.23175 | 1.88490 | 23089 ft | 431 kts | 78° |
| 2026-05-07 20:51 | 51.23778 | 1.93178 | 23090 ft | 432 kts | 78° |
| 2026-05-07 20:52 | 51.24309 | 1.97843 | 23089 ft | 431 kts | 83° |
| 2026-05-07 20:52 | 51.24495 | 2.02659 | 23087 ft | 431 kts | 91° |
| 2026-05-07 20:52 | 51.24316 | 2.07423 | 23089 ft | 430 kts | 96° |
| 2026-05-07 20:52 | 51.24066 | 2.12185 | 23085 ft | 431 kts | 95° |
| 2026-05-07 20:53 | 51.23821 | 2.16948 | 23086 ft | 430 kts | 97° |
| 2026-05-07 20:53 | 51.23167 | 2.21581 | 23086 ft | 429 kts | 111° |
| 2026-05-07 20:53 | 51.22113 | 2.26021 | 23084 ft | 429 kts | 109° |
| 2026-05-07 20:53 | 51.21364 | 2.30631 | 23085 ft | 430 kts | 104° |
| 2026-05-07 20:54 | 51.20730 | 2.35266 | 23082 ft | 430 kts | 103° |
| 2026-05-07 20:54 | 51.20073 | 2.39941 | 23085 ft | 430 kts | 104° |
| 2026-05-07 20:54 | 51.19374 | 2.44572 | 23089 ft | 430 kts | 105° |
| 2026-05-07 20:54 | 51.18638 | 2.49189 | 23091 ft | 430 kts | 105° |
| 2026-05-07 20:55 | 51.17882 | 2.53799 | 23094 ft | 430 kts | 106° |
| 2026-05-07 20:55 | 51.17117 | 2.58400 | 23093 ft | 430 kts | 106° |
| 2026-05-07 20:55 | 51.16347 | 2.62999 | 23099 ft | 430 kts | 106° |
| 2026-05-07 20:55 | 51.15577 | 2.67600 | 23100 ft | 430 kts | 106° |
| 2026-05-07 20:56 | 51.14804 | 2.72201 | 23103 ft | 430 kts | 106° |
| 2026-05-07 20:56 | 51.14032 | 2.76797 | 23100 ft | 430 kts | 106° |
| 2026-05-07 20:56 | 51.13257 | 2.81394 | 23101 ft | 430 kts | 106° |
| 2026-05-07 20:56 | 51.12482 | 2.85985 | 23103 ft | 430 kts | 106° |
| 2026-05-07 20:57 | 51.11705 | 2.90579 | 23099 ft | 430 kts | 106° |
| 2026-05-07 20:57 | 51.10922 | 2.95187 | 23100 ft | 430 kts | 106° |
| 2026-05-07 20:57 | 51.10142 | 2.99770 | 23101 ft | 430 kts | 106° |
| 2026-05-07 20:57 | 51.09359 | 3.04359 | 23099 ft | 430 kts | 106° |
| 2026-05-07 20:58 | 51.08574 | 3.08950 | 23098 ft | 430 kts | 106° |
| 2026-05-07 20:58 | 51.07786 | 3.13542 | 23093 ft | 430 kts | 106° |
| 2026-05-07 20:58 | 51.06996 | 3.18130 | 23089 ft | 430 kts | 106° |
| 2026-05-07 20:58 | 51.06205 | 3.22717 | 23089 ft | 430 kts | 106° |
| 2026-05-07 20:59 | 51.05412 | 3.27300 | 22968 ft | 430 kts | 106° |
| 2026-05-07 20:59 | 51.04621 | 3.31867 | 22688 ft | 428 kts | 106° |
| 2026-05-07 20:59 | 51.03830 | 3.36416 | 22417 ft | 426 kts | 107° |
| 2026-05-07 20:59 | 51.03041 | 3.40935 | 22148 ft | 424 kts | 107° |
| 2026-05-07 21:00 | 51.02253 | 3.45434 | 21877 ft | 422 kts | 107° |
| 2026-05-07 21:00 | 51.01468 | 3.49910 | 21612 ft | 420 kts | 107° |
| 2026-05-07 21:00 | 51.00686 | 3.54365 | 21367 ft | 418 kts | 107° |
| 2026-05-07 21:00 | 50.99904 | 3.58804 | 21099 ft | 416 kts | 107° |
| 2026-05-07 21:01 | 50.99125 | 3.63216 | 20836 ft | 414 kts | 107° |
| 2026-05-07 21:01 | 50.98347 | 3.67615 | 20579 ft | 413 kts | 107° |
| 2026-05-07 21:01 | 50.97571 | 3.71990 | 20327 ft | 411 kts | 107° |
| 2026-05-07 21:01 | 50.96797 | 3.76342 | 20076 ft | 409 kts | 107° |
| 2026-05-07 21:02 | 50.96024 | 3.80681 | 19827 ft | 408 kts | 107° |
| 2026-05-07 21:02 | 50.95253 | 3.84997 | 19584 ft | 406 kts | 107° |
| 2026-05-07 21:02 | 50.94485 | 3.89290 | 19191 ft | 403 kts | 107° |
| 2026-05-07 21:02 | 50.93716 | 3.93570 | 18466 ft | 402 kts | 107° |
| 2026-05-07 21:03 | 50.92974 | 3.97795 | 17773 ft | 392 kts | 104° |
| 2026-05-07 21:03 | 50.92549 | 4.01982 | 17123 ft | 379 kts | 96° |
| 2026-05-07 21:03 | 50.92401 | 4.06075 | 16491 ft | 366 kts | 94° |
| 2026-05-07 21:03 | 50.92264 | 4.09984 | 15874 ft | 355 kts | 94° |
| 2026-05-07 21:04 | 50.92114 | 4.13982 | 15266 ft | 380 kts | 94° |
| 2026-05-07 21:04 | 50.91944 | 4.18279 | 14593 ft | 397 kts | 94° |
| 2026-05-07 21:04 | 50.91767 | 4.22642 | 14004 ft | 394 kts | 94° |
| 2026-05-07 21:04 | 50.91590 | 4.26938 | 13163 ft | 387 kts | 94° |
| 2026-05-07 21:05 | 50.91418 | 4.31099 | 12542 ft | 369 kts | 94° |
| 2026-05-07 21:05 | 50.91253 | 4.35059 | 11926 ft | 352 kts | 94° |
| 2026-05-07 21:05 | 50.91093 | 4.38842 | 11336 ft | 337 kts | 94° |
| 2026-05-07 21:05 | 50.90937 | 4.42470 | 10771 ft | 324 kts | 94° |
| 2026-05-07 21:06 | 50.90780 | 4.46084 | 10414 ft | 336 kts | 94° |
| 2026-05-07 21:06 | 50.90620 | 4.49745 | 10353 ft | 328 kts | 94° |
| 2026-05-07 21:06 | 50.90466 | 4.53267 | 10219 ft | 312 kts | 94° |
| 2026-05-07 21:06 | 50.90303 | 4.56577 | 10026 ft | 290 kts | 97° |
| 2026-05-07 21:07 | 50.89993 | 4.59716 | 9764 ft | 291 kts | 100° |
| 2026-05-07 21:07 | 50.89648 | 4.62861 | 9338 ft | 287 kts | 100° |
| 2026-05-07 21:07 | 50.89308 | 4.65951 | 8789 ft | 282 kts | 100° |
| 2026-05-07 21:07 | 50.88970 | 4.69012 | 8305 ft | 281 kts | 100° |
| 2026-05-07 21:08 | 50.88637 | 4.72040 | 7818 ft | 278 kts | 100° |
| 2026-05-07 21:08 | 50.88307 | 4.75041 | 7326 ft | 276 kts | 100° |
| 2026-05-07 21:08 | 50.87993 | 4.78013 | 6915 ft | 272 kts | 98° |
| 2026-05-07 21:08 | 50.87914 | 4.81011 | 6558 ft | 273 kts | 89° |
| 2026-05-07 21:09 | 50.87949 | 4.83998 | 6164 ft | 269 kts | 89° |
| 2026-05-07 21:09 | 50.87994 | 4.86943 | 5772 ft | 266 kts | 86° |
| 2026-05-07 21:09 | 50.88528 | 4.89724 | 5365 ft | 265 kts | 62° |
| 2026-05-07 21:09 | 50.89487 | 4.92205 | 4976 ft | 263 kts | 58° |
| 2026-05-07 21:10 | 50.90761 | 4.94253 | 4554 ft | 262 kts | 37° |
| 2026-05-07 21:10 | 50.92250 | 4.95871 | 4282 ft | 251 kts | 35° |
| 2026-05-07 21:10 | 50.93725 | 4.97030 | 4102 ft | 226 kts | 14° |
| 2026-05-07 21:10 | 50.95211 | 4.97369 | 4088 ft | 215 kts | 4° |
| 2026-05-07 21:11 | 50.96657 | 4.96821 | 4089 ft | 214 kts | 332° |
| 2026-05-07 21:11 | 50.97410 | 4.95826 | 4095 ft | 215 kts | 310° |
| 2026-05-07 21:11 | 50.98200 | 4.89732 | 4091 ft | 267 kts | 269° |
| 2026-05-07 21:12 | 50.98093 | 4.87786 | 4096 ft | 268 kts | 259° |
| 2026-05-07 21:12 | 50.97297 | 4.84086 | 4096 ft | 268 kts | 245° |
| 2026-05-07 21:12 | 50.96832 | 4.82235 | 4082 ft | 267 kts | 248° |
| 2026-05-07 21:12 | 50.96029 | 4.78752 | 3711 ft | 236 kts | 248° |
| 2026-05-07 21:13 | 50.95503 | 4.76492 | 3397 ft | 204 kts | 248° |
| 2026-05-07 21:13 | 50.95031 | 4.74468 | 3131 ft | 196 kts | 248° |
| 2026-05-07 21:13 | 50.94707 | 4.73079 | 2955 ft | 198 kts | 249° |
| 2026-05-07 21:13 | 50.94238 | 4.71057 | 2696 ft | 196 kts | 249° |
| 2026-05-07 21:14 | 50.93768 | 4.69039 | 2428 ft | 193 kts | 249° |
| 2026-05-07 21:14 | 50.93303 | 4.67036 | 2177 ft | 194 kts | 248° |
| 2026-05-07 21:14 | 50.92851 | 4.65091 | 1917 ft | 181 kts | 249° |
| 2026-05-07 21:14 | 50.92442 | 4.63323 | 1691 ft | 162 kts | 249° |
| 2026-05-07 21:15 | 50.92072 | 4.61730 | 1470 ft | 151 kts | 249° |
| 2026-05-07 21:15 | 50.91716 | 4.60196 | 1268 ft | 141 kts | 249° |
| 2026-05-07 21:15 | 50.91384 | 4.58762 | 1078 ft | 142 kts | 249° |
| 2026-05-07 21:15 | 50.91052 | 4.57327 | 864 ft | 139 kts | 249° |
| 2026-05-07 21:16 | 50.90722 | 4.55915 | 674 ft | 136 kts | 249° |
| 2026-05-07 21:16 | 50.90397 | 4.54497 | 468 ft | 134 kts | 250° |
| 2026-05-07 21:16 | 50.90070 | 4.53083 | 309 ft | 138 kts | 249° |
| 2026-05-07 21:16 | 50.89745 | 4.51694 | 167 ft | 129 kts | 249° |
| 2026-05-07 21:17 | 50.89510 | 4.50654 | 172 ft | 71 kts | 250° |
| 2026-05-07 21:17 | 50.89408 | 4.50212 | 177 ft | 14 kts | 250° |
| 2026-05-07 21:17 | 50.89375 | 4.50069 | 180 ft | 32 kts | 250° |
| 2026-05-07 21:17 | 50.89338 | 4.49797 | 179 ft | 18 kts | 281° |
| 2026-05-07 21:18 | 50.89357 | 4.49710 | 177 ft | 0 kts | 296° |
| 2026-05-07 21:18 | 50.89362 | 4.49697 | 177 ft | 8 kts | 298° |
| 2026-05-07 21:18 | 50.89391 | 4.49630 | 176 ft | 0 kts | 307° |
| 2026-05-07 21:19 | 50.89392 | 4.49627 | 176 ft | 2 kts | 307° |
| 2026-05-07 21:19 | 50.89430 | 4.49547 | 175 ft | 14 kts | 307° |
| 2026-05-07 21:19 | 50.89496 | 4.49408 | 170 ft | 16 kts | 307° |
| 2026-05-07 21:20 | 50.89550 | 4.49293 | 171 ft | 0 kts | 307° |
| 2026-05-07 21:20 | 50.89564 | 4.49264 | 170 ft | 8 kts | 307° |
| 2026-05-07 21:21 | 50.89610 | 4.49170 | 168 ft | 10 kts | 311° |
| 2026-05-07 21:21 | 50.89687 | 4.49162 | 166 ft | 14 kts | 7° |
| 2026-05-07 21:21 | 50.89794 | 4.49203 | 166 ft | 15 kts | 16° |
| 2026-05-07 21:21 | 50.89913 | 4.49256 | 163 ft | 21 kts | 15° |
| 2026-05-07 21:22 | 50.90075 | 4.49322 | 156 ft | 27 kts | 14° |
| 2026-05-07 21:22 | 50.90254 | 4.49392 | 147 ft | 9 kts | 14° |
| 2026-05-07 21:22 | 50.90313 | 4.49381 | 145 ft | 11 kts | 331° |
| 2026-05-07 21:22 | 50.90320 | 4.49296 | 143 ft | 8 kts | 247° |
| 2026-05-07 21:23 | 50.90293 | 4.49197 | 144 ft | 11 kts | 245° |
| 2026-05-07 21:23 | 50.90261 | 4.49105 | 146 ft | 9 kts | 228° |
| 2026-05-07 21:23 | 50.90225 | 4.49108 | 148 ft | 4 kts | 158° |
| 2026-05-07 21:23 | 50.90202 | 4.49123 | 149 ft | 0 kts | 158° |
| 2026-05-07 21:24 | 50.90200 | 4.49125 | 149 ft | 0 kts | 158° |